Elkview, West Virginia
Current Conditions -  °F | °C
As of 11:54 PM on Monday 26 Jan 2015 (Local Time) from KCRW Reporting Station
Broken Clouds Broken Clouds  
Wind Chill: 24°   Ceiling: 2600
Heat Index: 24°   Visibility: 10mi
Dew Point: 19°   Wind: 3mph
Humidity: 81%   Direction: 300°WNW
Pressure: 29.9"   Gusts: NA
Location:  38.44°N, 81.48°W
Report Text: KCRW 270454Z 30003KT 10SM FEW015 BKN026 M04/M07 A2990 RMK AO2 SNE29 SLP136 BKN V SCT P0000 T10441072 400441044
Loading
Personal Weather Stations






























Interactive Weather Map New forecast layout! Learn more

10-Day Weather Forecast

Advertisements
Track Severe Weather on mobile